createdAt,value
2017-12-19T00:00:23.944Z,85.03
2017-12-19T00:02:52.361Z,85.15
2017-12-19T00:05:21.476Z,84.75
2017-12-19T00:07:49.921Z,84.96
2017-12-19T00:10:20.573Z,84.59
2017-12-19T00:12:48.926Z,84.61
2017-12-19T00:15:17.259Z,84.62
2017-12-19T00:17:45.630Z,84.73
2017-12-19T00:20:13.961Z,84.59
2017-12-19T00:22:43.091Z,84.41
2017-12-19T00:25:12.724Z,84.30
2017-12-19T00:27:41.050Z,84.32
2017-12-19T00:30:10.180Z,84.47
2017-12-19T00:32:38.497Z,84.43
2017-12-19T00:35:06.841Z,84.47
2017-12-19T00:37:35.163Z,84.25
2017-12-19T00:40:03.550Z,84.06
2017-12-19T00:42:32.640Z,84.22
2017-12-19T00:45:00.980Z,84.68
2017-12-19T00:47:29.345Z,84.23
2017-12-19T00:49:57.684Z,83.84
2017-12-19T00:52:26.792Z,83.60
2017-12-19T00:54:55.137Z,83.27
2017-12-19T00:57:23.578Z,83.45
2017-12-19T00:59:51.920Z,83.28
2017-12-19T01:02:21.024Z,83.00
2017-12-19T01:04:49.386Z,83.31
2017-12-19T01:07:18.576Z,83.42
2017-12-19T01:09:47.784Z,83.39
2017-12-19T01:12:16.895Z,83.80
2017-12-19T01:14:45.273Z,83.52
2017-12-19T01:17:13.617Z,83.52
2017-12-19T01:19:42.017Z,82.80
2017-12-19T01:22:11.127Z,82.93
2017-12-19T01:24:39.462Z,83.29
2017-12-19T01:27:07.814Z,83.41
2017-12-19T01:29:36.155Z,83.78
2017-12-19T01:32:04.496Z,83.61
2017-12-19T01:34:32.868Z,83.49
2017-12-19T01:37:01.260Z,83.25
2017-12-19T01:39:29.587Z,83.13
2017-12-19T01:41:57.939Z,83.55
2017-12-19T01:44:26.297Z,83.51
2017-12-19T01:46:55.417Z,83.60
2017-12-19T01:49:23.776Z,84.00
2017-12-19T01:51:52.896Z,83.82
2017-12-19T01:54:21.268Z,83.71
2017-12-19T01:56:49.601Z,83.88
2017-12-19T01:59:17.953Z,83.73
2017-12-19T02:01:46.312Z,83.76
2017-12-19T02:04:14.670Z,83.39
2017-12-19T02:06:43.849Z,83.13
2017-12-19T02:09:12.965Z,82.99
2017-12-19T02:11:41.300Z,83.05
2017-12-19T02:14:09.669Z,82.91
2017-12-19T02:16:40.742Z,82.73
2017-12-19T02:19:09.831Z,82.62
2017-12-19T02:21:38.214Z,83.00
2017-12-19T02:24:07.400Z,83.07
2017-12-19T02:26:35.810Z,83.43
2017-12-19T02:29:04.133Z,83.26
2017-12-19T02:31:32.470Z,83.37
2017-12-19T02:34:00.814Z,83.05
2017-12-19T02:36:29.923Z,82.61
2017-12-19T02:38:59.013Z,82.77
2017-12-19T02:41:28.224Z,82.52
2017-12-19T02:43:57.351Z,82.30
2017-12-19T02:46:25.788Z,82.07
2017-12-19T02:48:54.908Z,82.24
2017-12-19T02:51:23.255Z,82.34
2017-12-19T02:53:51.607Z,82.44
2017-12-19T02:56:20.059Z,82.37
2017-12-19T02:58:48.393Z,82.23
2017-12-19T03:01:17.485Z,82.72
2017-12-19T03:03:46.632Z,82.77
2017-12-19T03:06:14.948Z,83.21
2017-12-19T03:08:43.284Z,83.16
2017-12-19T03:11:11.639Z,83.34
2017-12-19T03:13:40.072Z,83.38
2017-12-19T03:16:08.417Z,83.55
2017-12-19T03:18:36.742Z,83.81
2017-12-19T03:21:05.104Z,83.79
2017-12-19T03:23:33.442Z,84.05
2017-12-19T03:26:01.776Z,83.52
2017-12-19T03:28:30.924Z,83.79
2017-12-19T03:30:59.260Z,84.10
2017-12-19T03:33:28.360Z,83.47
2017-12-19T03:35:57.547Z,83.67
2017-12-19T03:38:26.720Z,83.80
2017-12-19T03:40:55.050Z,84.12
2017-12-19T03:43:23.377Z,84.06
2017-12-19T03:45:51.756Z,84.33
2017-12-19T03:48:20.176Z,84.06
2017-12-19T03:50:48.510Z,83.34
2017-12-19T03:53:16.874Z,84.26
2017-12-19T03:55:45.240Z,84.43
2017-12-19T03:58:13.608Z,84.05
2017-12-19T04:00:41.929Z,83.88
2017-12-19T04:03:10.335Z,84.29
2017-12-19T04:05:38.685Z,84.14
2017-12-19T04:08:07.036Z,84.49
2017-12-19T04:10:35.399Z,84.61
2017-12-19T04:13:03.752Z,84.76
2017-12-19T04:15:32.113Z,84.58
2017-12-19T04:18:01.271Z,84.49
2017-12-19T04:20:29.683Z,84.18
2017-12-19T04:22:58.782Z,84.10
2017-12-19T04:25:27.920Z,83.98
2017-12-19T04:27:56.250Z,84.10
2017-12-19T04:30:24.574Z,83.88
2017-12-19T04:32:52.922Z,83.82
2017-12-19T04:35:21.269Z,84.06
2017-12-19T04:37:49.723Z,84.07
2017-12-19T04:40:18.053Z,83.90
2017-12-19T04:42:47.150Z,83.83
2017-12-19T04:45:16.276Z,84.04
2017-12-19T04:47:44.635Z,84.22
2017-12-19T04:50:13.054Z,84.23
2017-12-19T04:52:41.404Z,84.08
2017-12-19T04:55:09.871Z,84.30
2017-12-19T04:57:38.220Z,83.77
2017-12-19T05:00:07.331Z,83.63
2017-12-19T05:02:36.463Z,83.49
2017-12-19T05:05:04.799Z,83.31
2017-12-19T05:07:33.920Z,83.31
2017-12-19T05:10:02.283Z,83.35
2017-12-19T05:12:30.619Z,83.39
2017-12-19T05:14:58.970Z,83.43
2017-12-19T05:17:27.299Z,83.51
2017-12-19T05:19:56.426Z,83.41
2017-12-19T05:22:24.800Z,83.86
2017-12-19T05:24:53.144Z,84.12
2017-12-19T05:27:22.272Z,84.56
2017-12-19T05:29:50.588Z,85.25
2017-12-19T05:32:19.011Z,85.94
2017-12-19T05:34:48.104Z,86.63
2017-12-19T05:37:17.222Z,87.30
2017-12-19T05:39:45.621Z,87.78
2017-12-19T05:42:13.972Z,88.10
2017-12-19T05:44:42.431Z,88.79
2017-12-19T05:47:11.526Z,88.58
2017-12-19T05:49:40.700Z,88.57
2017-12-19T05:52:09.017Z,88.59
2017-12-19T05:54:37.347Z,89.22
2017-12-19T05:57:05.724Z,89.50
2017-12-19T05:59:34.066Z,89.40
2017-12-19T06:02:02.391Z,89.65
2017-12-19T06:04:30.741Z,89.90
2017-12-19T06:06:59.164Z,89.65
2017-12-19T06:09:28.380Z,89.72
2017-12-19T06:11:56.707Z,89.44
2017-12-19T06:14:25.101Z,89.83
2017-12-19T06:16:53.488Z,89.82
2017-12-19T06:19:21.812Z,90.26
2017-12-19T06:21:50.170Z,90.29
2017-12-19T06:24:18.529Z,90.31
2017-12-19T06:26:47.665Z,90.51
2017-12-19T06:29:16.030Z,90.41
2017-12-19T06:31:44.352Z,90.82
2017-12-19T06:34:12.740Z,91.23
2017-12-19T06:36:41.117Z,91.24
2017-12-19T06:39:09.428Z,91.52
2017-12-19T06:41:37.826Z,91.65
2017-12-19T06:44:06.145Z,91.53
2017-12-19T06:46:34.506Z,91.76
2017-12-19T06:49:02.824Z,91.67
2017-12-19T06:51:31.949Z,91.92
2017-12-19T06:54:00.286Z,91.73
2017-12-19T06:56:28.630Z,91.54
2017-12-19T06:58:57.017Z,91.67
2017-12-19T07:01:25.431Z,91.97
2017-12-19T07:03:54.615Z,92.13
2017-12-19T07:06:22.973Z,92.19
2017-12-19T07:08:51.379Z,92.01
2017-12-19T07:11:19.719Z,91.73
2017-12-19T07:13:48.053Z,91.46
2017-12-19T07:16:16.381Z,91.27
2017-12-19T07:18:44.744Z,91.19
2017-12-19T07:21:13.166Z,90.95
2017-12-19T07:23:42.261Z,90.92
2017-12-19T07:26:11.402Z,90.87
2017-12-19T07:28:39.720Z,90.87
2017-12-19T07:31:08.060Z,90.49
2017-12-19T07:33:36.425Z,90.90
2017-12-19T07:36:04.744Z,91.12
2017-12-19T07:38:33.075Z,90.95
2017-12-19T07:41:01.432Z,90.55
2017-12-19T07:43:30.619Z,90.65
2017-12-19T07:45:59.747Z,89.22
2017-12-19T07:48:28.105Z,88.99
2017-12-19T07:50:57.253Z,89.18
2017-12-19T07:53:25.635Z,88.68
2017-12-19T07:55:54.917Z,88.30
2017-12-19T07:58:23.255Z,88.54
2017-12-19T08:00:52.362Z,88.28
2017-12-19T08:03:20.701Z,87.83
2017-12-19T08:05:49.076Z,88.53
2017-12-19T08:08:17.403Z,88.56
2017-12-19T08:10:45.723Z,87.83
2017-12-19T08:13:14.087Z,87.76
2017-12-19T08:15:42.410Z,87.17
2017-12-19T08:18:11.517Z,87.05
2017-12-19T08:20:40.683Z,87.69
2017-12-19T08:23:09.016Z,87.92
2017-12-19T08:25:37.440Z,87.82
2017-12-19T08:28:05.829Z,88.23
2017-12-19T08:30:34.916Z,88.11
2017-12-19T08:33:03.229Z,88.57
2017-12-19T08:35:31.582Z,89.02
2017-12-19T08:38:00.873Z,89.01
2017-12-19T08:40:30.080Z,89.90
2017-12-19T08:42:59.231Z,89.50
2017-12-19T08:45:27.551Z,90.00
2017-12-19T08:47:56.663Z,89.60
2017-12-19T08:50:25.040Z,89.13
2017-12-19T08:52:54.147Z,89.31
2017-12-19T08:55:22.459Z,90.03
2017-12-19T08:57:50.865Z,89.79
2017-12-19T09:00:19.197Z,89.70
2017-12-19T09:02:47.564Z,89.83
2017-12-19T09:05:15.935Z,89.83
2017-12-19T09:07:44.268Z,89.79
2017-12-19T09:10:12.624Z,90.03
2017-12-19T09:12:41.058Z,89.99
2017-12-19T09:15:09.451Z,90.07
2017-12-19T09:17:37.835Z,89.60
2017-12-19T09:20:06.156Z,89.52
2017-12-19T09:22:34.488Z,89.45
2017-12-19T09:25:02.905Z,91.24
2017-12-19T09:27:31.312Z,88.96
2017-12-19T09:30:00.414Z,88.08
2017-12-19T09:32:29.748Z,87.77
2017-12-19T09:34:58.079Z,88.14
2017-12-19T09:37:27.181Z,88.80
2017-12-19T09:39:56.300Z,90.09
2017-12-19T09:42:24.652Z,89.91
2017-12-19T09:44:53.771Z,89.52
2017-12-19T09:47:22.218Z,89.37
2017-12-19T09:49:50.544Z,89.17
2017-12-19T09:52:18.868Z,89.14
2017-12-19T09:54:47.270Z,89.26
2017-12-19T09:57:16.405Z,89.94
2017-12-19T09:59:44.738Z,89.39
2017-12-19T10:02:13.877Z,89.22
2017-12-19T10:04:42.256Z,89.65
2017-12-19T10:07:10.601Z,90.24
2017-12-19T10:09:38.922Z,89.99
2017-12-19T10:12:07.284Z,90.56
2017-12-19T10:14:35.577Z,89.77
2017-12-19T10:17:03.890Z,89.91
2017-12-19T10:19:32.241Z,90.25
2017-12-19T10:22:00.557Z,90.89
2017-12-19T10:24:29.731Z,90.56
2017-12-19T10:26:58.089Z,90.43
2017-12-19T10:29:26.416Z,90.00
2017-12-19T10:31:54.751Z,89.77
2017-12-19T10:34:23.127Z,89.46
2017-12-19T10:36:51.457Z,90.14
2017-12-19T10:39:19.806Z,90.27
2017-12-19T10:41:49.096Z,90.30
2017-12-19T10:44:17.432Z,90.24
2017-12-19T10:46:45.775Z,90.48
2017-12-19T10:49:14.101Z,90.21
2017-12-19T10:51:42.475Z,90.59
2017-12-19T10:54:10.791Z,90.24
2017-12-19T10:56:39.898Z,90.46
2017-12-19T10:59:09.020Z,90.76
2017-12-19T11:01:37.353Z,90.90
2017-12-19T11:04:05.680Z,91.15
2017-12-19T11:06:34.054Z,91.86
2017-12-19T11:09:02.373Z,91.44
2017-12-19T11:11:30.697Z,91.57
2017-12-19T11:13:59.032Z,91.11
2017-12-19T11:16:28.884Z,91.92
2017-12-19T11:18:57.246Z,91.91
2017-12-19T11:21:26.342Z,91.52
2017-12-19T11:23:55.462Z,91.82
2017-12-19T11:26:23.786Z,91.55
2017-12-19T11:28:52.108Z,91.49
2017-12-19T11:31:20.458Z,91.13
2017-12-19T11:33:50.441Z,91.02
2017-12-19T11:36:18.784Z,90.67
2017-12-19T11:38:47.110Z,90.15
2017-12-19T11:41:15.481Z,90.06
2017-12-19T11:43:43.816Z,90.47
2017-12-19T11:46:12.146Z,90.28
2017-12-19T11:48:40.520Z,90.07
2017-12-19T11:51:09.073Z,90.53
2017-12-19T11:53:37.407Z,90.41
2017-12-19T11:56:06.537Z,90.04
2017-12-19T11:58:34.856Z,89.67
2017-12-19T12:01:03.203Z,90.87
2017-12-19T12:03:31.531Z,90.71
2017-12-19T12:06:00.675Z,90.98
2017-12-19T12:08:29.050Z,90.22
2017-12-19T12:10:57.500Z,90.84
2017-12-19T12:16:01.100Z,92.05
2017-12-19T12:18:30.238Z,91.90
2017-12-19T12:20:58.559Z,91.21
2017-12-19T12:23:26.954Z,91.41
2017-12-19T12:25:56.079Z,91.12
2017-12-19T12:28:24.422Z,91.72
2017-12-19T12:30:53.564Z,91.48
2017-12-19T12:33:22.042Z,91.16
2017-12-19T12:35:50.380Z,91.46
2017-12-19T12:38:19.474Z,91.06
2017-12-19T12:40:48.596Z,91.54
2017-12-19T12:43:16.969Z,92.09
2017-12-19T12:45:45.496Z,92.05
2017-12-19T12:48:13.850Z,92.40
2017-12-19T12:50:42.179Z,92.37
2017-12-19T12:53:11.299Z,92.21
2017-12-19T12:55:39.651Z,91.91
2017-12-19T12:58:08.787Z,91.84
2017-12-19T13:00:37.125Z,90.92
2017-12-19T13:03:06.260Z,90.72
2017-12-19T13:05:34.611Z,91.40
2017-12-19T13:08:02.944Z,91.39
2017-12-19T13:10:31.378Z,91.37
2017-12-19T13:12:59.776Z,91.66
2017-12-19T13:15:28.111Z,92.31
2017-12-19T13:17:57.314Z,92.24
2017-12-19T13:20:26.427Z,92.39
2017-12-19T13:22:54.744Z,92.41
2017-12-19T13:25:23.149Z,92.76
2017-12-19T13:27:51.487Z,92.77
2017-12-19T13:30:19.952Z,93.17
2017-12-19T13:32:48.418Z,93.17
2017-12-19T13:35:16.785Z,92.83
2017-12-19T13:37:45.897Z,92.79
2017-12-19T13:40:14.225Z,92.54
2017-12-19T13:42:42.623Z,92.27
2017-12-19T13:45:10.969Z,92.87
2017-12-19T13:47:39.389Z,92.59
2017-12-19T13:50:08.584Z,92.88
2017-12-19T13:52:37.687Z,93.12
2017-12-19T13:55:06.060Z,92.80
2017-12-19T13:57:35.236Z,92.94
2017-12-19T14:00:03.586Z,93.00
2017-12-19T14:02:31.922Z,93.04
2017-12-19T14:05:00.282Z,92.81
2017-12-19T14:07:29.468Z,93.17
2017-12-19T14:09:57.944Z,92.82
2017-12-19T14:12:26.272Z,92.65
2017-12-19T14:14:54.608Z,92.97
2017-12-19T14:17:23.739Z,93.38
2017-12-19T14:19:52.076Z,93.58
2017-12-19T14:22:20.474Z,93.90
2017-12-19T14:24:49.602Z,94.35
2017-12-19T14:27:18.029Z,94.19
2017-12-19T14:29:46.367Z,94.22
2017-12-19T14:32:14.715Z,94.36
2017-12-19T14:34:43.166Z,94.37
2017-12-19T14:37:11.479Z,94.21
2017-12-19T14:39:39.797Z,94.28
2017-12-19T14:42:08.157Z,94.50
2017-12-19T14:44:36.624Z,94.52
2017-12-19T14:47:04.955Z,94.28
2017-12-19T14:49:34.087Z,94.15
2017-12-19T14:52:02.452Z,94.14
2017-12-19T14:54:30.784Z,94.43
2017-12-19T14:56:59.121Z,94.65
2017-12-19T14:59:27.476Z,94.71
2017-12-19T15:01:56.556Z,94.53
2017-12-19T15:04:25.661Z,94.62
2017-12-19T15:06:54.785Z,94.61
2017-12-19T15:09:23.125Z,94.61
2017-12-19T15:11:52.222Z,94.62
2017-12-19T15:14:21.345Z,94.64
2017-12-19T15:16:49.675Z,94.79
2017-12-19T15:19:18.020Z,94.67
2017-12-19T15:21:46.365Z,94.70
2017-12-19T15:24:14.712Z,94.58
2017-12-19T15:26:43.048Z,94.68
2017-12-19T15:29:11.373Z,94.82
2017-12-19T15:31:39.730Z,95.05
2017-12-19T15:34:08.149Z,95.07
2017-12-19T15:36:37.267Z,95.03
2017-12-19T15:39:05.607Z,95.10
2017-12-19T15:41:33.971Z,95.11
2017-12-19T15:44:03.128Z,94.95
2017-12-19T15:46:31.462Z,94.95
2017-12-19T15:49:00.569Z,95.01
2017-12-19T15:51:29.732Z,94.97
2017-12-19T15:53:58.057Z,95.02
2017-12-19T15:56:26.397Z,94.94
2017-12-19T15:58:54.810Z,94.81
2017-12-19T16:01:23.148Z,94.81
2017-12-19T16:03:51.687Z,94.81
2017-12-19T16:06:20.028Z,94.65
2017-12-19T16:08:49.174Z,94.67
2017-12-19T16:11:17.520Z,94.67
2017-12-19T16:13:45.873Z,94.77
2017-12-19T16:16:14.968Z,94.75
2017-12-19T16:18:44.089Z,94.71
2017-12-19T16:21:12.416Z,94.87
2017-12-19T16:23:40.820Z,95.01
2017-12-19T16:26:09.957Z,95.37
2017-12-19T16:28:38.293Z,95.50
2017-12-19T16:31:07.437Z,95.45
2017-12-19T16:33:35.768Z,95.56
2017-12-19T16:36:04.162Z,95.49
2017-12-19T16:38:33.276Z,95.40
2017-12-19T16:41:01.620Z,95.36
2017-12-19T16:43:30.818Z,95.27
2017-12-19T16:45:59.933Z,95.20
2017-12-19T16:48:28.293Z,95.23
2017-12-19T16:50:57.453Z,95.10
2017-12-19T16:53:25.863Z,95.12
2017-12-19T16:55:54.208Z,95.08
2017-12-19T16:58:22.565Z,95.04
2017-12-19T17:00:50.926Z,95.14
2017-12-19T17:03:19.253Z,95.21
2017-12-19T17:05:47.596Z,95.23
2017-12-19T17:08:15.928Z,95.10
2017-12-19T17:10:44.276Z,95.06
2017-12-19T17:13:13.408Z,94.92
2017-12-19T17:15:42.532Z,94.91
2017-12-19T17:18:10.844Z,94.90
2017-12-19T17:20:39.181Z,94.99
2017-12-19T17:23:07.550Z,94.91
2017-12-19T17:25:35.952Z,95.02
2017-12-19T17:28:04.401Z,95.14
2017-12-19T17:30:32.772Z,95.34
2017-12-19T17:33:01.131Z,95.24
2017-12-19T17:35:29.489Z,95.34
2017-12-19T17:37:57.840Z,95.45
2017-12-19T17:40:26.156Z,95.31
2017-12-19T17:42:54.523Z,95.32
2017-12-19T17:45:22.875Z,95.30
2017-12-19T17:47:51.250Z,95.50
2017-12-19T17:50:19.626Z,95.39
2017-12-19T17:52:47.970Z,95.51
2017-12-19T17:55:17.072Z,95.61
2017-12-19T17:57:46.220Z,95.57
2017-12-19T18:00:14.547Z,95.58
2017-12-19T18:02:43.641Z,95.59
2017-12-19T18:05:12.854Z,95.63
2017-12-19T18:07:41.320Z,95.63
2017-12-19T18:10:09.927Z,95.44
2017-12-19T18:12:39.277Z,95.34
2017-12-19T18:15:09.150Z,95.28
2017-12-19T18:17:37.473Z,95.10
2017-12-19T18:20:06.648Z,95.12
2017-12-19T18:22:34.999Z,95.21
2017-12-19T18:25:03.362Z,95.50
2017-12-19T18:27:32.932Z,95.35
2017-12-19T18:30:01.364Z,95.28
2017-12-19T18:32:29.729Z,95.19
2017-12-19T18:34:58.121Z,95.15
2017-12-19T18:37:26.472Z,95.16
2017-12-19T18:39:54.801Z,95.08
2017-12-19T18:42:23.172Z,95.03
2017-12-19T18:44:51.576Z,94.94
2017-12-19T18:47:19.902Z,94.81
2017-12-19T18:49:48.281Z,94.73
2017-12-19T18:52:16.611Z,94.54
2017-12-19T18:54:44.973Z,94.36
2017-12-19T18:57:13.303Z,94.24
2017-12-19T18:59:41.694Z,94.10
2017-12-19T19:02:10.124Z,94.28
2017-12-19T19:04:38.460Z,94.26
2017-12-19T19:07:06.879Z,94.12
2017-12-19T19:09:35.220Z,94.07
2017-12-19T19:12:03.547Z,94.21
2017-12-19T19:14:31.920Z,93.98
2017-12-19T19:17:01.040Z,94.04
2017-12-19T19:19:29.378Z,94.01
2017-12-19T19:21:59.249Z,93.80
2017-12-19T19:24:27.613Z,93.68
2017-12-19T19:26:55.972Z,93.72
2017-12-19T19:29:25.157Z,93.67
2017-12-19T19:31:54.274Z,93.58
2017-12-19T19:34:22.609Z,93.65
2017-12-19T19:36:50.995Z,93.74
2017-12-19T19:39:19.371Z,93.95
2017-12-19T19:41:47.706Z,93.92
2017-12-19T19:44:16.076Z,93.61
2017-12-19T19:46:44.467Z,93.68
2017-12-19T19:49:12.797Z,93.86
2017-12-19T19:51:41.927Z,93.68
2017-12-19T19:54:10.254Z,93.87
2017-12-19T19:56:38.581Z,93.91
2017-12-19T19:59:06.942Z,93.93
2017-12-19T20:01:35.279Z,93.85
2017-12-19T20:04:03.611Z,93.77
2017-12-19T20:06:31.968Z,93.89
2017-12-19T20:09:01.142Z,93.80
2017-12-19T20:11:30.232Z,93.75
2017-12-19T20:13:58.643Z,93.52
2017-12-19T20:16:27.870Z,93.39
2017-12-19T20:18:56.232Z,93.16
2017-12-19T20:21:24.564Z,93.11
2017-12-19T20:23:52.966Z,92.74
2017-12-19T20:26:22.062Z,92.96
2017-12-19T20:28:51.203Z,92.79
2017-12-19T20:31:19.530Z,93.06
2017-12-19T20:33:48.632Z,93.21
2017-12-19T20:36:17.758Z,93.23
2017-12-19T20:38:46.196Z,93.25
2017-12-19T20:41:15.356Z,93.12
2017-12-19T20:43:43.676Z,93.62
2017-12-19T20:46:12.785Z,93.60
2017-12-19T20:48:41.124Z,93.56
2017-12-19T20:51:09.452Z,93.62
2017-12-19T20:53:37.839Z,93.80
2017-12-19T20:56:06.162Z,93.65
2017-12-19T20:58:34.499Z,93.75
2017-12-19T21:01:02.838Z,94.13
2017-12-19T21:03:31.939Z,94.18
2017-12-19T21:06:01.058Z,94.30
2017-12-19T21:08:29.409Z,94.53
2017-12-19T21:10:58.549Z,94.66
2017-12-19T21:13:26.903Z,94.59
2017-12-19T21:15:55.228Z,94.47
2017-12-19T21:18:23.594Z,94.44
2017-12-19T21:20:51.938Z,94.31
2017-12-19T21:23:20.296Z,94.16
2017-12-19T21:28:23.264Z,94.22
2017-12-19T21:30:51.615Z,94.31
2017-12-19T21:33:19.973Z,94.38
2017-12-19T21:35:48.312Z,94.40
2017-12-19T21:38:17.457Z,94.35
2017-12-19T21:40:45.792Z,94.12
2017-12-19T21:43:14.942Z,94.01
2017-12-19T21:45:43.273Z,93.90
2017-12-19T21:48:12.360Z,93.88
2017-12-19T21:50:41.489Z,93.84
2017-12-19T21:53:10.017Z,94.07
2017-12-19T21:55:38.373Z,94.18
2017-12-19T21:58:06.801Z,94.29
2017-12-19T22:00:35.932Z,94.33
2017-12-19T22:03:04.273Z,94.28
2017-12-19T22:05:33.376Z,94.13
2017-12-19T22:08:01.728Z,93.96
2017-12-19T22:10:30.067Z,93.92
2017-12-19T22:12:58.447Z,93.71
2017-12-19T22:15:26.787Z,93.51
2017-12-19T22:17:55.121Z,93.47
2017-12-19T22:20:23.493Z,93.46
2017-12-19T22:22:51.859Z,93.29
2017-12-19T22:25:20.212Z,93.06
2017-12-19T22:27:48.535Z,92.55
2017-12-19T22:30:16.892Z,92.56
2017-12-19T22:32:45.254Z,92.48
2017-12-19T22:35:13.602Z,92.54
2017-12-19T22:37:42.692Z,92.75
2017-12-19T22:40:11.826Z,92.71
2017-12-19T22:42:40.159Z,92.54
2017-12-19T22:45:09.339Z,92.33
2017-12-19T22:47:37.739Z,92.25
2017-12-19T22:50:06.839Z,92.26
2017-12-19T22:52:35.988Z,92.22
2017-12-19T22:55:04.304Z,92.27
2017-12-19T22:57:33.493Z,92.12
2017-12-19T23:00:01.861Z,92.31
2017-12-19T23:02:30.209Z,92.17
2017-12-19T23:04:58.561Z,92.24
2017-12-19T23:07:26.922Z,92.19
2017-12-19T23:09:56.066Z,92.13
2017-12-19T23:12:24.392Z,92.21
2017-12-19T23:14:53.487Z,92.25
2017-12-19T23:17:22.611Z,92.27
2017-12-19T23:19:50.961Z,92.13
2017-12-19T23:22:20.076Z,92.01
2017-12-19T23:24:48.517Z,92.22
2017-12-19T23:27:16.902Z,92.47
2017-12-19T23:29:45.988Z,92.48
2017-12-19T23:32:14.374Z,92.55
2017-12-19T23:34:43.525Z,91.88
2017-12-19T23:37:11.869Z,91.87
2017-12-19T23:39:40.245Z,91.76
2017-12-19T23:42:08.603Z,91.93
2017-12-19T23:44:37.717Z,92.04
2017-12-19T23:47:06.076Z,92.06
2017-12-19T23:49:34.401Z,92.02
2017-12-19T23:52:02.772Z,91.96
2017-12-19T23:54:31.109Z,91.78
2017-12-19T23:57:00.203Z,91.51
2017-12-19T23:59:29.308Z,91.58
